This is the latest recevied weather packets stored in our database for station/object W5MAI. If no packets are shown the sender has not sent any weather packets the latest 10 day(s).
| Time | Temp. | Humidity | Pressure | Rain* | Wind** | Luminosity | Snow |
|---|---|---|---|---|---|---|---|
| 1777917806 | 25° C | 65% | 1015 hPa | 0 mm | - | 1067 W/m² | - |
| 1777917230 | 25° C | 65% | 1015.2 hPa | 0 mm | - | 1063 W/m² | - |
| 1777916657 | 25° C | 66% | 1015.2 hPa | 0 mm | - | 436 W/m² | - |
| 1777915428 | 24.44° C | 67% | 1015.3 hPa | 0 mm | - | 1028 W/m² | - |
| 1777914841 | 23.89° C | 69% | 1015.7 hPa | 0 mm | - | 947 W/m² | - |
| 1777914212 | 23.33° C | 71% | 1015.8 hPa | 0 mm | - | 227 W/m² | - |
| 1777913634 | 23.33° C | 71% | 1015.9 hPa | 0 mm | - | 390 W/m² | - |
| 1777913049 | 22.78° C | 72% | 1016.1 hPa | 0 mm | - | 828 W/m² | - |
| 1777912453 | 22.78° C | 71% | 1015.9 hPa | 0 mm | - | 888 W/m² | - |
| 1777911826 | 22.22° C | 73% | 1016.2 hPa | 0 mm | - | 914 W/m² | - |
| 1777911250 | 22.22° C | 73% | 1016.3 hPa | 0 mm | - | 265 W/m² | - |
| 1777910021 | 21.11° C | 78% | 1016.3 hPa | 0 mm | - | 851 W/m² | - |
| 1777909455 | 20.56° C | 78% | 1016.1 hPa | 0 mm | - | 306 W/m² | - |
| 1777908221 | 20° C | 81% | 1016.6 hPa | 0 mm | - | 244 W/m² | - |
| 1777907655 | 20° C | 81% | 1016.6 hPa | 0 mm | - | 246 W/m² | - |
| 1777907009 | 20° C | 80% | 1016.8 hPa | 0 mm | - | 155 W/m² | - |
| 1777906439 | 20° C | 80% | 1016.7 hPa | 0 mm | - | 195 W/m² | - |
| 1777905861 | 19.44° C | 81% | 1016.7 hPa | 0 mm | - | 287 W/m² | - |
| 1777905224 | 19.44° C | 81% | 1016.7 hPa | 0 mm | - | 200 W/m² | - |
| 1777904644 | 18.89° C | 81% | 1016.9 hPa | 0 mm | - | 234 W/m² | - |
| 1777904004 | 18.89° C | 81% | 1016.6 hPa | 0 mm | - | 162 W/m² | - |
| 1777902838 | 18.33° C | 83% | 1016.7 hPa | 0 mm | - | 207 W/m² | - |
| 1777902206 | 17.78° C | 83% | 1016.9 hPa | 0 mm | - | 195 W/m² | - |
| 1777901626 | 17.22° C | 84% | 1017.1 hPa | 0 mm | - | 153 W/m² | - |
| 1777901056 | 17.22° C | 84% | 1017.1 hPa | 0 mm | - | 127 W/m² | - |
* Rain latest hour (hover to see other rain measurements)
** Current wind speed in m/s (hover to see current wind gust speed)